• Join FlightAware (Why Join?)
  • Login
  • US Flag 
07:27AM EDT


 

Airport Tracker/Info


-or-


 

Live Flight TrackerFlight Track Log ✈ N4500Y ✈ 28-Jun-2013 ✈ KJKA - KLFT

Flight Track Log - Related Links

Times and Time Zones

All times are in EDT time to prevent confusion due to time zone crossing. See the N4500Y flight status page for this flight to view local times or setup timezone preferences in your user account.

Time Position Orientation Groundspeed Altitude Reporting Facility
EDT Latitude Longitude Course Direction KTS MPH feet Rate Location/Type
04:01PM 30.2967 -87.8403 277° West 126 145 3,200  Level Houston Center
04:03PM 30.3003 -87.8850 275° West 132 152 3,900 720 Climbing Houston Center
04:04PM 30.3011 -87.9400 271° West 138 159 4,700 660 Climbing Houston Center
04:05PM 30.3008 -87.9869 270° West 142 163 5,300 540 Climbing Houston Center
04:06PM 30.2997 -88.0328 268° West 144 166 5,900 480 Climbing Houston Center
04:07PM 30.2989 -88.0786 269° West 145 167 6,400 480 Climbing Houston Center
04:08PM 30.2983 -88.1275 269° West 150 173 7,000 480 Climbing Houston Center
04:09PM 30.2983 -88.1758 270° West 150 173 7,500 480 Climbing Houston Center
04:10PM 30.2969 -88.2339 268° West 150 173 8,000 240 Climbing Houston Center
04:11PM 30.2978 -88.2858 271° West 160 184 8,000  Level Houston Center
04:12PM 30.3017 -88.3378 275° West 161 185 8,000  Level Houston Center
04:13PM 30.3000 -88.3869 268° West 153 176 8,000  Level Houston Center
04:14PM 30.2978 -88.4375 267° West 156 180 8,000 -60 Level Houston Center
04:15PM 30.2969 -88.4872 269° West 153 176 7,900  Descending Houston Center
04:16PM 30.2928 -88.5461 265° West 152 175 8,000  Climbing Houston Center
04:17PM 30.2961 -88.5967 274° West 156 180 8,000  Level Houston Center
04:18PM 30.2950 -88.6461 269° West 154 177 8,000  Level Houston Center
04:19PM 30.2931 -88.6961 267° West 156 180 8,000  Level Houston Center
04:20PM 30.2936 -88.7469 271° West 156 180 8,000  Level Houston Center
04:21PM 30.2933 -88.7969 270° West 157 181 8,000  Level Houston Center
04:22PM 30.2911 -88.8558 268° West 153 176 8,000 -60 Level Houston Center
04:23PM 30.2917 -88.9061 271° West 154 177 7,900  Descending Houston Center
04:24PM 30.2908 -88.9569 269° West 152 175 8,000  Climbing Houston Center
04:25PM 30.2908 -89.0069 270° West 154 177 8,000 -60 Level Houston Center
04:26PM 30.2897 -89.0564 269° West 155 178 7,900  Descending Houston Center
04:27PM 30.2892 -89.1050 269° West 153 176 8,000  Climbing Houston Center
04:28PM 30.2892 -89.1531 270° West 150 173 8,000  Level Houston Center
04:29PM 30.2867 -89.2122 267° West 153 176 8,000  Level Houston Center
04:31PM 30.2838 -89.2666 267° West  Level FlightAware Approximate
04:31PM 30.2858 -89.3094 267° West 152 175 8,000  Level Houston Center
04:32PM 30.2861 -89.3506 270° West 151 174 8,100 60 Climbing Houston Center
04:33PM 30.2869 -89.3722 273° West 149 171 8,100  Level Houston Center
04:34PM 30.2806 -89.4253 262° West 157 181 8,100 -60 Level Houston Center
04:35PM 30.2814 -89.4544 272° West 150 173 8,000 -60 Descending Houston Center
04:36PM 30.2817 -89.5122 270° West 150 173 8,000  Level Houston Center
04:37PM 30.2806 -89.5611 269° West 152 175 8,000 -60 Level Houston Center
04:38PM 30.2797 -89.6103 269° West 151 174 7,900  Descending Houston Center
04:39PM 30.2789 -89.6594 269° West 152 175 8,000  Climbing Houston Center
04:40PM 30.2781 -89.7072 269° West 149 171 8,000  Level Houston Center
04:41PM 30.2764 -89.7567 268° West 152 175 8,000  Level Houston Center
04:42PM 30.2756 -89.8072 269° West 154 177 8,000  Level Houston Center
04:43PM 30.2736 -89.8667 268° West 152 175 8,000  Level Houston Center
04:44PM 30.2706 -89.9147 266° West 154 177 8,100  Climbing Houston Center
04:45PM 30.2700 -89.9653 269° West 153 176 8,100 -60 Level Houston Center
04:46PM 30.2694 -90.0158 269° West 154 177 8,000  Descending Houston Center
04:47PM 30.2669 -90.0664 267° West 154 177 8,100  Climbing Houston Center
04:48PM 30.2664 -90.1147 269° West 154 177 8,000 -60 Descending Houston Center
04:49PM 30.2653 -90.1636 269° West 154 177 8,000  Level Houston Center
04:50PM 30.2644 -90.2231 269° West 154 177 8,000  Level Houston Center
04:51PM 30.2625 -90.2592 266° West 152 175 8,100  Climbing Houston Center
04:52PM 30.2625 -90.3211 270° West 153 176 8,000  Descending Houston Center
04:53PM 30.2597 -90.3750 267° West 152 175 8,100  Climbing Houston Center
04:54PM 30.2606 -90.4086 272° West 153 176 8,000 -60 Descending Houston Center
04:55PM 30.2581 -90.4617 267° West 155 178 8,000  Level Houston Center
04:56PM 30.2556 -90.5292 268° West 157 181 8,000  Level Houston Center
04:57PM 30.2553 -90.5778 270° West 156 180 8,000  Level Houston Center
04:58PM 30.2539 -90.6283 268° West 157 181 8,000  Level Houston Center
04:59PM 30.2519 -90.6789 267° West 159 183 8,000  Level Houston Center
05:00PM 30.2519 -90.7278 270° West 156 180 8,000  Level Houston Center
05:02PM 30.2500 -90.7883 268° West 157 181 8,000  Level Houston Center
05:03PM 30.2494 -90.8392 269° West 158 182 8,000  Level Houston Center
05:04PM 30.2483 -90.8894 269° West 158 182 8,000  Level Houston Center
05:05PM 30.2478 -90.9400 269° West 158 182 8,000  Level Houston Center
05:06PM 30.2469 -90.9900 269° West 157 181 8,000  Level Houston Center
05:07PM 30.2478 -91.0397 271° West 157 181 8,000  Level Houston Center
05:08PM 30.2458 -91.1011 268° West 158 182 8,000  Level Houston Center
05:09PM 30.2442 -91.1506 268° West 156 180 8,000  Level Houston Center
05:10PM 30.2478 -91.2008 275° West 157 181 8,000 -60 Level Houston Center
05:11PM 30.2467 -91.2514 269° West 158 182 7,900 -60 Descending Houston Center
05:12PM 30.2467 -91.3019 270° West 158 182 7,900 -240 Level Houston Center
05:13PM 30.2469 -91.3544 270° West 164 189 7,500 -480 Descending Houston Center
05:14PM 30.2447 -91.4250 268° West 184 212 7,000 -480 Descending Houston Center
05:15PM 30.2419 -91.4831 267° West 183 211 6,600 -540 Descending Houston Center
05:16PM 30.2394 -91.5428 267° West 185 213 6,000 -540 Descending Houston Center
05:17PM 30.2383 -91.6011 269° West 183 211 5,500 -480 Descending Houston Center
05:18PM 30.2403 -91.6592 272° West 182 209 5,000 -540 Descending Houston Center
05:19PM 30.2717 -91.7039 309° West 174 200 4,500 -540 Descending Houston Center
05:20PM 30.3064 -91.7575 307° West 174 200 4,000 -600 Descending Houston Center
05:21PM 30.3378 -91.8003 310° West 175 201 3,300 -540 Descending Houston Center
05:22PM 30.3378 -91.8531 270° West 184 212 2,900 -420 Descending Houston Center
05:23PM 30.3086 -91.8883 226° Southwest 170 196 2,500 -540 Descending Houston Center
05:24PM 30.2689 -91.9253 219° Southwest 166 191 1,900 -600 Descending Houston Center
05:26PM 30.2258 -91.9616 216° Southwest  Level FlightAware Approximate
05:33PM 30.2000 -91.9833 221° Southwest  Level FlightAware Approximate
05:34PM 30.2050 -91.9877 221° Southwest  Level Estimated
05:35PM 30.2000 -91.9833 221° Southwest  Level FlightAware Approximate
05:36PM 30.2050 -91.9877 221° Southwest  Level Estimated